PWSweather.com
Personal Weather Stations
Station Observations

SkegnessGB

Lat: 53.147585, Lon: 0.345774

Elevation: 18

Station Type: Fine Offset WH3080

http://www.skegnessweather.info/

High Low Average
Temperature 41.5°F5.3°C 33.1°F0.6°C 36.7°F2.6°C
Dew Point 35.7°F2.1°C 29.7°F-1.3°C 33.5°F0.8°C
Winds 25.6 mph 41.2 kmh 6.7 mph 10.8 kmh 16.0 mph S25.7 kmh S
Wind Gusts 26.8 mph43.1 kmh 7.6 mph12.2 kmh 17.0 mph27.4 kmh
Humidity 97% 77% 88%
Pressure 29.71 in1006.1 mb 29.46 in997.6 mb -
Precipitation 0.02 in0.5 mm - -
Hour Temp Dew Point Humidity Winds Wind Gusts Pressure Precip Precip Rate Daily Precip Total
12:00 AM 33.4°F0.8°C 29.7°F-1.3°C 86% 11.1 mph SSE17.9 kmh SSE 16.7 mph26.9 kmh 29.71 in1006.1 mb 0.00 in0.0 mm 0.00 in0.0 mm 0.00 in0.0 mm
12:10 AM 33.6°F0.9°C 29.9°F-1.2°C 86% 14.2 mph SSE22.9 kmh SSE 16.7 mph26.9 kmh 29.70 in1005.8 mb 0.00 in0.0 mm 0.00 in0.0 mm 0.00 in0.0 mm
12:20 AM 33.6°F0.9°C 29.9°F-1.2°C 86% 12.1 mph SSE19.5 kmh SSE 13.3 mph21.4 kmh 29.70 in1005.8 mb 0.00 in0.0 mm 0.00 in0.0 mm 0.00 in0.0 mm
12:30 AM 33.6°F0.9°C 29.9°F-1.2°C 86% 12.3 mph SSE19.8 kmh SSE 12.5 mph20.1 kmh 29.69 in1005.4 mb 0.00 in0.0 mm 0.00 in0.0 mm 0.00 in0.0 mm
12:40 AM 33.4°F0.8°C 30.0°F-1.1°C 87% 11.7 mph SSE18.8 kmh SSE 12.5 mph20.1 kmh 29.69 in1005.4 mb 0.00 in0.0 mm 0.00 in0.0 mm 0.00 in0.0 mm
12:50 AM 33.1°F0.6°C 29.9°F-1.2°C 88% 13.4 mph SSE21.6 kmh SSE 11.8 mph19.0 kmh 29.68 in1005.1 mb 0.00 in0.0 mm 0.00 in0.0 mm 0.00 in0.0 mm
01:00 AM 33.1°F0.6°C 30.2°F-1.0°C 89% 14.4 mph S23.2 kmh S 16.0 mph25.7 kmh 29.68 in1005.1 mb 0.00 in0.0 mm 0.00 in0.0 mm 0.00 in0.0 mm
01:10 AM 33.1°F0.6°C 30.5°F-0.8°C 90% 15.1 mph SSW24.3 kmh SSW 17.5 mph28.2 kmh 29.68 in1005.1 mb 0.00 in0.0 mm 0.00 in0.0 mm 0.00 in0.0 mm
01:20 AM 33.3°F0.7°C 30.6°F-0.8°C 90% 14.5 mph S23.3 kmh S 17.5 mph28.2 kmh 29.67 in1004.7 mb 0.00 in0.0 mm 0.00 in0.0 mm 0.00 in0.0 mm
01:30 AM 33.4°F0.8°C 30.8°F-0.7°C 90% 15.6 mph S25.1 kmh S 18.5 mph29.8 kmh 29.67 in1004.7 mb 0.00 in0.0 mm 0.00 in0.0 mm 0.00 in0.0 mm
01:40 AM 33.6°F0.9°C 31.0°F-0.6°C 90% 16.6 mph S26.7 kmh S 16.0 mph25.7 kmh 29.66 in1004.4 mb 0.00 in0.0 mm 0.00 in0.0 mm 0.00 in0.0 mm
01:50 AM 33.6°F0.9°C 31.0°F-0.6°C 90% 16.9 mph S27.2 kmh S 18.5 mph29.8 kmh 29.66 in1004.4 mb 0.00 in0.0 mm 0.00 in0.0 mm 0.00 in0.0 mm
02:00 AM 33.6°F0.9°C 31.0°F-0.6°C 90% 16.3 mph SSE26.2 kmh SSE 19.2 mph30.9 kmh 29.66 in1004.4 mb 0.00 in0.0 mm 0.00 in0.0 mm 0.00 in0.0 mm
02:10 AM 33.6°F0.9°C 31.0°F-0.6°C 90% 16.3 mph SSE26.2 kmh SSE 18.5 mph29.8 kmh 29.65 in1004.1 mb 0.00 in0.0 mm 0.00 in0.0 mm 0.00 in0.0 mm
02:20 AM 33.6°F0.9°C 31.3°F-0.4°C 91% 15.9 mph SE25.6 kmh SE 16.0 mph25.7 kmh 29.65 in1004.1 mb 0.00 in0.0 mm 0.00 in0.0 mm 0.00 in0.0 mm
02:30 AM 33.8°F1.0°C 31.5°F-0.3°C 91% 16.7 mph SSE26.9 kmh SSE 18.5 mph29.8 kmh 29.63 in1003.4 mb 0.00 in0.0 mm 0.00 in0.0 mm 0.00 in0.0 mm
02:40 AM 34.0°F1.1°C 31.6°F-0.2°C 91% 18.5 mph S29.8 kmh S 16.0 mph25.7 kmh 29.63 in1003.4 mb 0.00 in0.0 mm 0.00 in0.0 mm 0.00 in0.0 mm
02:50 AM 34.2°F1.2°C 31.8°F-0.1°C 91% 17.2 mph S27.7 kmh S 17.5 mph28.2 kmh 29.62 in1003.0 mb 0.00 in0.0 mm 0.00 in0.0 mm 0.00 in0.0 mm
03:00 AM 34.2°F1.2°C 31.8°F-0.1°C 91% 18.0 mph S29.0 kmh S 16.7 mph26.9 kmh 29.62 in1003.0 mb 0.00 in0.0 mm 0.00 in0.0 mm 0.00 in0.0 mm
03:10 AM 34.2°F1.2°C 31.8°F-0.1°C 91% 16.7 mph SSW26.9 kmh SSW 16.7 mph26.9 kmh 29.61 in1002.7 mb 0.00 in0.0 mm 0.00 in0.0 mm 0.00 in0.0 mm
03:20 AM 34.5°F1.4°C 32.2°F0.1°C 91% 19.0 mph S30.6 kmh S 21.7 mph34.9 kmh 29.61 in1002.7 mb 0.00 in0.0 mm 0.00 in0.0 mm 0.00 in0.0 mm
03:30 AM 34.5°F1.4°C 31.9°F-0.1°C 90% 19.4 mph SSE31.2 kmh SSE 20.9 mph33.6 kmh 29.60 in1002.4 mb 0.00 in0.0 mm 0.00 in0.0 mm 0.00 in0.0 mm
03:40 AM 34.7°F1.5°C 32.1°F0.1°C 90% 19.8 mph S31.9 kmh S 21.7 mph34.9 kmh 29.60 in1002.4 mb 0.00 in0.0 mm 0.00 in0.0 mm 0.00 in0.0 mm
03:50 AM 34.7°F1.5°C 32.1°F0.1°C 90% 19.8 mph S31.9 kmh S 22.6 mph36.4 kmh 29.59 in1002.0 mb 0.00 in0.0 mm 0.00 in0.0 mm 0.00 in0.0 mm
04:00 AM 34.9°F1.6°C 32.5°F0.3°C 91% 17.5 mph SSE28.2 kmh SSE 19.2 mph30.9 kmh 29.59 in1002.0 mb 0.00 in0.0 mm 0.00 in0.0 mm 0.00 in0.0 mm
04:10 AM 35.1°F1.7°C 32.7°F0.4°C 91% 18.6 mph S29.9 kmh S 20.9 mph33.6 kmh 29.58 in1001.7 mb 0.00 in0.0 mm 0.00 in0.0 mm 0.00 in0.0 mm
04:20 AM 35.4°F1.9°C 32.8°F0.4°C 90% 20.1 mph SSE32.3 kmh SSE 20.9 mph33.6 kmh 29.57 in1001.4 mb 0.00 in0.0 mm 0.00 in0.0 mm 0.00 in0.0 mm
04:30 AM 35.6°F2.0°C 33.0°F0.6°C 90% 20.4 mph S32.8 kmh S 22.6 mph36.4 kmh 29.57 in1001.4 mb 0.00 in0.0 mm 0.00 in0.0 mm 0.00 in0.0 mm
04:40 AM 35.6°F2.0°C 32.7°F0.4°C 89% 21.4 mph SSE34.4 kmh SSE 22.6 mph36.4 kmh 29.56 in1001.0 mb 0.00 in0.0 mm 0.00 in0.0 mm 0.00 in0.0 mm
04:50 AM 35.6°F2.0°C 32.7°F0.4°C 89% 20.5 mph S33.0 kmh S 23.4 mph37.7 kmh 29.56 in1001.0 mb 0.00 in0.0 mm 0.00 in0.0 mm 0.00 in0.0 mm
05:00 AM 35.4°F1.9°C 32.5°F0.3°C 89% 20.2 mph S32.5 kmh S 18.5 mph29.8 kmh 29.55 in1000.7 mb 0.00 in0.0 mm 0.00 in0.0 mm 0.00 in0.0 mm
05:10 AM 35.4°F1.9°C 32.5°F0.3°C 89% 20.9 mph SE33.6 kmh SE 20.9 mph33.6 kmh 29.55 in1000.7 mb 0.00 in0.0 mm 0.00 in0.0 mm 0.00 in0.0 mm
05:20 AM 35.2°F1.8°C 32.3°F0.2°C 89% 20.2 mph SSE32.5 kmh SSE 23.4 mph37.7 kmh 29.53 in1000.0 mb 0.00 in0.0 mm 0.00 in0.0 mm 0.00 in0.0 mm
05:30 AM 35.2°F1.8°C 32.3°F0.2°C 89% 20.3 mph SSE32.7 kmh SSE 20.9 mph33.6 kmh 29.53 in1000.0 mb 0.00 in0.0 mm 0.00 in0.0 mm 0.00 in0.0 mm
05:40 AM 35.4°F1.9°C 32.5°F0.3°C 89% 21.7 mph SSE34.9 kmh SSE 20.9 mph33.6 kmh 29.53 in1000.0 mb 0.00 in0.0 mm 0.00 in0.0 mm 0.00 in0.0 mm
05:50 AM 35.4°F1.9°C 32.5°F0.3°C 89% 22.5 mph SSE36.2 kmh SSE 21.7 mph34.9 kmh 29.52 in999.7 mb 0.00 in0.0 mm 0.00 in0.0 mm 0.00 in0.0 mm
06:00 AM 35.4°F1.9°C 32.5°F0.3°C 89% 23.8 mph SE38.3 kmh SE 24.4 mph39.3 kmh 29.52 in999.7 mb 0.00 in0.0 mm 0.00 in0.0 mm 0.00 in0.0 mm
06:10 AM 35.4°F1.9°C 32.5°F0.3°C 89% 21.4 mph S34.4 kmh S 23.4 mph37.7 kmh 29.52 in999.7 mb 0.00 in0.0 mm 0.00 in0.0 mm 0.00 in0.0 mm
06:20 AM 35.4°F1.9°C 32.5°F0.3°C 89% 17.4 mph SSE28.0 kmh SSE 18.5 mph29.8 kmh 29.52 in999.7 mb 0.00 in0.0 mm 0.00 in0.0 mm 0.00 in0.0 mm
06:30 AM 35.6°F2.0°C 32.7°F0.4°C 89% 19.6 mph S31.5 kmh S 23.4 mph37.7 kmh 29.51 in999.3 mb 0.00 in0.0 mm 0.00 in0.0 mm 0.00 in0.0 mm
06:40 AM 35.6°F2.0°C 32.4°F0.2°C 88% 19.9 mph SSE32.0 kmh SSE 20.9 mph33.6 kmh 29.51 in999.3 mb 0.00 in0.0 mm 0.00 in0.0 mm 0.00 in0.0 mm
06:50 AM 35.6°F2.0°C 32.4°F0.2°C 88% 21.0 mph S33.8 kmh S 20.9 mph33.6 kmh 29.51 in999.3 mb 0.00 in0.0 mm 0.00 in0.0 mm 0.00 in0.0 mm
07:00 AM 35.8°F2.1°C 32.6°F0.3°C 88% 20.0 mph SSE32.2 kmh SSE 18.5 mph29.8 kmh 29.51 in999.3 mb 0.00 in0.0 mm 0.00 in0.0 mm 0.00 in0.0 mm
07:10 AM 35.8°F2.1°C 32.6°F0.3°C 88% 17.9 mph SE28.8 kmh SE 18.5 mph29.8 kmh 29.51 in999.3 mb 0.00 in0.0 mm 0.00 in0.0 mm 0.00 in0.0 mm
07:20 AM 35.8°F2.1°C 32.6°F0.3°C 88% 19.9 mph SSE32.0 kmh SSE 20.9 mph33.6 kmh 29.51 in999.3 mb 0.00 in0.0 mm 0.00 in0.0 mm 0.00 in0.0 mm
07:30 AM 36.0°F2.2°C 32.5°F0.3°C 87% 18.3 mph S29.5 kmh S 22.6 mph36.4 kmh 29.50 in999.0 mb 0.00 in0.0 mm 0.00 in0.0 mm 0.00 in0.0 mm
07:40 AM 36.0°F2.2°C 32.5°F0.3°C 87% 20.3 mph S32.7 kmh S 21.7 mph34.9 kmh 29.50 in999.0 mb 0.00 in0.0 mm 0.00 in0.0 mm 0.00 in0.0 mm
07:50 AM 36.1°F2.3°C 32.6°F0.3°C 87% 20.1 mph S32.3 kmh S 21.7 mph34.9 kmh 29.50 in999.0 mb 0.00 in0.0 mm 0.00 in0.0 mm 0.00 in0.0 mm
08:00 AM 36.3°F2.4°C 32.8°F0.4°C 87% 20.9 mph SSE33.6 kmh SSE 22.6 mph36.4 kmh 29.49 in998.6 mb 0.00 in0.0 mm 0.00 in0.0 mm 0.00 in0.0 mm
08:10 AM 36.5°F2.5°C 32.7°F0.4°C 86% 18.7 mph S30.1 kmh S 25.8 mph41.5 kmh 29.50 in999.0 mb 0.00 in0.0 mm 0.00 in0.0 mm 0.00 in0.0 mm
08:20 AM 36.7°F2.6°C 32.9°F0.5°C 86% 20.8 mph S33.5 kmh S 20.9 mph33.6 kmh 29.50 in999.0 mb 0.00 in0.0 mm 0.00 in0.0 mm 0.00 in0.0 mm
08:30 AM 37.0°F2.8°C 32.9°F0.5°C 85% 18.7 mph SSE30.1 kmh SSE 18.5 mph29.8 kmh 29.49 in998.6 mb 0.00 in0.0 mm 0.00 in0.0 mm 0.00 in0.0 mm
08:40 AM 37.0°F2.8°C 32.9°F0.5°C 85% 16.9 mph S27.2 kmh S 19.2 mph30.9 kmh 29.49 in998.6 mb 0.00 in0.0 mm 0.00 in0.0 mm 0.00 in0.0 mm
08:50 AM 37.2°F2.9°C 33.1°F0.6°C 85% 19.2 mph S30.9 kmh S 19.2 mph30.9 kmh 29.49 in998.6 mb 0.00 in0.0 mm 0.00 in0.0 mm 0.00 in0.0 mm
09:00 AM 37.4°F3.0°C 33.3°F0.7°C 85% 18.2 mph S29.3 kmh S 20.9 mph33.6 kmh 29.49 in998.6 mb 0.00 in0.0 mm 0.00 in0.0 mm 0.00 in0.0 mm
09:10 AM 37.6°F3.1°C 33.5°F0.8°C 85% 23.4 mph S37.7 kmh S 20.9 mph33.6 kmh 29.48 in998.3 mb 0.00 in0.0 mm 0.00 in0.0 mm 0.00 in0.0 mm
09:20 AM 37.8°F3.2°C 33.4°F0.8°C 84% 21.8 mph S35.1 kmh S 25.8 mph41.5 kmh 29.48 in998.3 mb 0.00 in0.0 mm 0.00 in0.0 mm 0.00 in0.0 mm
09:30 AM 37.9°F3.3°C 33.5°F0.8°C 84% 19.6 mph SE31.5 kmh SE 24.4 mph39.3 kmh 29.48 in998.3 mb 0.00 in0.0 mm 0.00 in0.0 mm 0.00 in0.0 mm
09:40 AM 38.1°F3.4°C 33.7°F0.9°C 84% 18.6 mph S29.9 kmh S 22.6 mph36.4 kmh 29.48 in998.3 mb 0.00 in0.0 mm 0.00 in0.0 mm 0.00 in0.0 mm
09:50 AM 38.5°F3.6°C 33.8°F1.0°C 83% 14.9 mph SE24.0 kmh SE 18.5 mph29.8 kmh 29.48 in998.3 mb 0.00 in0.0 mm 0.00 in0.0 mm 0.00 in0.0 mm
10:00 AM 39.0°F3.9°C 34.3°F1.3°C 83% 21.0 mph SE33.8 kmh SE 22.6 mph36.4 kmh 29.48 in998.3 mb 0.00 in0.0 mm 0.00 in0.0 mm 0.00 in0.0 mm
10:10 AM 39.6°F4.2°C 34.2°F1.2°C 81% 25.6 mph S41.2 kmh S 25.8 mph41.5 kmh 29.48 in998.3 mb 0.00 in0.0 mm 0.00 in0.0 mm 0.00 in0.0 mm
10:20 AM 39.7°F4.3°C 34.1°F1.2°C 80% 20.3 mph SSE32.7 kmh SSE 20.9 mph33.6 kmh 29.48 in998.3 mb 0.00 in0.0 mm 0.00 in0.0 mm 0.00 in0.0 mm
10:30 AM 39.7°F4.3°C 34.1°F1.2°C 80% 18.8 mph S30.3 kmh S 21.7 mph34.9 kmh 29.47 in998.0 mb 0.00 in0.0 mm 0.00 in0.0 mm 0.00 in0.0 mm
10:40 AM 40.5°F4.7°C 34.1°F1.2°C 78% 18.1 mph SSE29.1 kmh SSE 23.4 mph37.7 kmh 29.47 in998.0 mb 0.00 in0.0 mm 0.00 in0.0 mm 0.00 in0.0 mm
10:50 AM 41.0°F5.0°C 35.0°F1.7°C 79% 19.4 mph S31.2 kmh S 21.7 mph34.9 kmh 29.47 in998.0 mb 0.00 in0.0 mm 0.00 in0.0 mm 0.00 in0.0 mm
11:00 AM 40.8°F4.9°C 34.2°F1.2°C 77% 21.8 mph S35.1 kmh S 23.4 mph37.7 kmh 29.46 in997.6 mb 0.00 in0.0 mm 0.00 in0.0 mm 0.00 in0.0 mm
11:10 AM 40.6°F4.8°C 34.0°F1.1°C 77% 23.8 mph SSW38.3 kmh SSW 23.4 mph37.7 kmh 29.46 in997.6 mb 0.00 in0.0 mm 0.00 in0.0 mm 0.00 in0.0 mm
11:20 AM 41.2°F5.1°C 34.5°F1.4°C 77% 22.6 mph SE36.4 kmh SE 21.7 mph34.9 kmh 29.46 in997.6 mb 0.00 in0.0 mm 0.00 in0.0 mm 0.00 in0.0 mm
11:30 AM 41.2°F5.1°C 34.5°F1.4°C 77% 20.4 mph ENE32.8 kmh ENE 24.4 mph39.3 kmh 29.46 in997.6 mb 0.00 in0.0 mm 0.00 in0.0 mm 0.00 in0.0 mm
11:40 AM 41.0°F5.0°C 34.3°F1.3°C 77% 19.4 mph SE31.2 kmh SE 20.9 mph33.6 kmh 29.46 in997.6 mb 0.00 in0.0 mm 0.00 in0.0 mm 0.00 in0.0 mm
11:50 AM 40.8°F4.9°C 34.2°F1.2°C 77% 20.3 mph SE32.7 kmh SE 26.8 mph43.1 kmh 29.46 in997.6 mb 0.00 in0.0 mm 0.00 in0.0 mm 0.00 in0.0 mm
12:00 PM 41.2°F5.1°C 34.5°F1.4°C 77% 22.0 mph S35.4 kmh S 23.4 mph37.7 kmh 29.46 in997.6 mb 0.00 in0.0 mm 0.00 in0.0 mm 0.00 in0.0 mm
12:10 PM 41.2°F5.1°C 34.5°F1.4°C 77% 19.7 mph SSW31.7 kmh SSW 25.8 mph41.5 kmh 29.46 in997.6 mb 0.00 in0.0 mm 0.00 in0.0 mm 0.00 in0.0 mm
12:20 PM 41.5°F5.3°C 35.5°F1.9°C 79% 22.1 mph ESE35.6 kmh ESE 25.8 mph41.5 kmh 29.46 in997.6 mb 0.00 in0.0 mm 0.00 in0.0 mm 0.00 in0.0 mm
12:30 PM 41.2°F5.1°C 35.2°F1.8°C 79% 22.6 mph SSE36.4 kmh SSE 25.1 mph40.4 kmh 29.46 in997.6 mb 0.00 in0.0 mm 0.00 in0.0 mm 0.00 in0.0 mm
12:40 PM 40.3°F4.6°C 34.9°F1.6°C 81% 23.1 mph S37.2 kmh S 25.8 mph41.5 kmh 29.46 in997.6 mb 0.00 in0.0 mm 0.00 in0.0 mm 0.00 in0.0 mm
12:50 PM 40.1°F4.5°C 34.7°F1.5°C 81% 19.0 mph S30.6 kmh S 20.9 mph33.6 kmh 29.46 in997.6 mb 0.00 in0.0 mm 0.00 in0.0 mm 0.00 in0.0 mm
01:00 PM 40.1°F4.5°C 35.0°F1.7°C 82% 17.9 mph SW28.8 kmh SW 17.5 mph28.2 kmh 29.46 in997.6 mb 0.00 in0.0 mm 0.00 in0.0 mm 0.00 in0.0 mm
01:10 PM 40.1°F4.5°C 34.7°F1.5°C 81% 16.9 mph S27.2 kmh S 22.6 mph36.4 kmh 29.46 in997.6 mb 0.00 in0.0 mm 0.00 in0.0 mm 0.00 in0.0 mm
01:20 PM 40.3°F4.6°C 35.2°F1.8°C 82% 17.6 mph S28.3 kmh S 19.2 mph30.9 kmh 29.47 in998.0 mb 0.00 in0.0 mm 0.00 in0.0 mm 0.00 in0.0 mm
01:30 PM 40.5°F4.7°C 35.7°F2.1°C 83% 18.1 mph E29.1 kmh E 20.9 mph33.6 kmh 29.47 in998.0 mb 0.00 in0.0 mm 0.00 in0.0 mm 0.00 in0.0 mm
01:40 PM 40.5°F4.7°C 35.4°F1.9°C 82% 19.7 mph S31.7 kmh S 22.6 mph36.4 kmh 29.47 in998.0 mb 0.00 in0.0 mm 0.00 in0.0 mm 0.00 in0.0 mm
01:50 PM 40.3°F4.6°C 35.2°F1.8°C 82% 17.9 mph SSE28.8 kmh SSE 18.5 mph29.8 kmh 29.47 in998.0 mb 0.00 in0.0 mm 0.00 in0.0 mm 0.00 in0.0 mm
02:00 PM 40.5°F4.7°C 35.7°F2.1°C 83% 19.7 mph S31.7 kmh S 20.2 mph32.5 kmh 29.47 in998.0 mb 0.00 in0.0 mm 0.00 in0.0 mm 0.00 in0.0 mm
02:10 PM 40.5°F4.7°C 35.4°F1.9°C 82% 16.1 mph SSW25.9 kmh SSW 16.7 mph26.9 kmh 29.47 in998.0 mb 0.00 in0.0 mm 0.00 in0.0 mm 0.00 in0.0 mm
02:20 PM 39.9°F4.4°C 34.9°F1.6°C 82% 18.8 mph SSW30.3 kmh SSW 19.2 mph30.9 kmh 29.48 in998.3 mb 0.00 in0.0 mm 0.00 in0.0 mm 0.00 in0.0 mm
02:30 PM 39.6°F4.2°C 34.8°F1.6°C 83% 19.4 mph SSE31.2 kmh SSE 20.2 mph32.5 kmh 29.49 in998.6 mb 0.00 in0.0 mm 0.00 in0.0 mm 0.00 in0.0 mm
02:40 PM 39.2°F4.0°C 34.8°F1.6°C 84% 14.9 mph S24.0 kmh S 17.5 mph28.2 kmh 29.49 in998.6 mb 0.00 in0.0 mm 0.00 in0.0 mm 0.00 in0.0 mm
02:50 PM 39.0°F3.9°C 34.6°F1.4°C 84% 13.5 mph SE21.7 kmh SE 16.7 mph26.9 kmh 29.50 in999.0 mb 0.00 in0.0 mm 0.00 in0.0 mm 0.00 in0.0 mm
03:00 PM 39.0°F3.9°C 34.9°F1.6°C 85% 13.8 mph S22.2 kmh S 14.3 mph23.0 kmh 29.50 in999.0 mb 0.00 in0.0 mm 0.00 in0.0 mm 0.00 in0.0 mm
03:10 PM 38.8°F3.8°C 34.7°F1.5°C 85% 15.7 mph S25.3 kmh S 13.3 mph21.4 kmh 29.50 in999.0 mb 0.00 in0.0 mm 0.00 in0.0 mm 0.00 in0.0 mm
03:20 PM 38.8°F3.8°C 35.0°F1.7°C 86% 13.8 mph S22.2 kmh S 14.3 mph23.0 kmh 29.50 in999.0 mb 0.00 in0.0 mm 0.00 in0.0 mm 0.00 in0.0 mm
03:30 PM 38.7°F3.7°C 34.8°F1.6°C 86% 13.3 mph S21.4 kmh S 16.0 mph25.7 kmh 29.51 in999.3 mb 0.00 in0.0 mm 0.00 in0.0 mm 0.00 in0.0 mm
03:40 PM 38.7°F3.7°C 34.5°F1.4°C 85% 14.7 mph SSE23.7 kmh SSE 19.2 mph30.9 kmh 29.51 in999.3 mb 0.00 in0.0 mm 0.00 in0.0 mm 0.00 in0.0 mm
03:50 PM 38.7°F3.7°C 34.5°F1.4°C 85% 12.5 mph SSE20.1 kmh SSE 16.0 mph25.7 kmh 29.52 in999.7 mb 0.00 in0.0 mm 0.00 in0.0 mm 0.00 in0.0 mm
04:00 PM 38.5°F3.6°C 34.4°F1.3°C 85% 11.8 mph S19.0 kmh S 16.0 mph25.7 kmh 29.52 in999.7 mb 0.00 in0.0 mm 0.00 in0.0 mm 0.00 in0.0 mm
04:10 PM 38.5°F3.6°C 34.1°F1.2°C 84% 16.6 mph SSE26.7 kmh SSE 18.5 mph29.8 kmh 29.53 in1000.0 mb 0.00 in0.0 mm 0.00 in0.0 mm 0.00 in0.0 mm
04:20 PM 38.5°F3.6°C 34.1°F1.2°C 84% 15.8 mph SE25.4 kmh SE 16.7 mph26.9 kmh 29.53 in1000.0 mb 0.00 in0.0 mm 0.00 in0.0 mm 0.00 in0.0 mm
04:30 PM 38.3°F3.5°C 34.2°F1.2°C 85% 12.4 mph SSE20.0 kmh SSE 16.0 mph25.7 kmh 29.53 in1000.0 mb 0.00 in0.0 mm 0.00 in0.0 mm 0.00 in0.0 mm
04:40 PM 38.3°F3.5°C 34.2°F1.2°C 85% 15.2 mph S24.5 kmh S 17.5 mph28.2 kmh 29.54 in1000.3 mb 0.00 in0.0 mm 0.00 in0.0 mm 0.00 in0.0 mm
04:50 PM 38.1°F3.4°C 34.0°F1.1°C 85% 16.3 mph SSE26.2 kmh SSE 17.5 mph28.2 kmh 29.54 in1000.3 mb 0.00 in0.0 mm 0.00 in0.0 mm 0.00 in0.0 mm
05:00 PM 37.9°F3.3°C 33.8°F1.0°C 85% 9.4 mph SSE15.1 kmh SSE 11.8 mph19.0 kmh 29.55 in1000.7 mb 0.00 in0.0 mm 0.00 in0.0 mm 0.00 in0.0 mm
05:10 PM 37.8°F3.2°C 34.2°F1.2°C 87% 13.3 mph SSE21.4 kmh SSE 11.8 mph19.0 kmh 29.55 in1000.7 mb 0.00 in0.0 mm 0.00 in0.0 mm 0.00 in0.0 mm
05:20 PM 37.2°F2.9°C 34.6°F1.4°C 90% 11.4 mph S18.3 kmh S 14.3 mph23.0 kmh 29.56 in1001.0 mb 0.00 in0.0 mm 0.00 in0.0 mm 0.00 in0.0 mm
05:30 PM 37.0°F2.8°C 34.9°F1.6°C 92% 7.1 mph SE11.4 kmh SE 14.3 mph23.0 kmh 29.57 in1001.4 mb 0.00 in0.0 mm 0.00 in0.0 mm 0.00 in0.0 mm
05:40 PM 36.7°F2.6°C 34.8°F1.6°C 93% 13.4 mph S21.6 kmh S 16.0 mph25.7 kmh 29.57 in1001.4 mb 0.00 in0.0 mm 0.00 in0.0 mm 0.00 in0.0 mm
05:50 PM 36.5°F2.5°C 34.7°F1.5°C 93% 9.6 mph S15.4 kmh S 10.8 mph17.4 kmh 29.57 in1001.4 mb 0.00 in0.0 mm 0.00 in0.0 mm 0.00 in0.0 mm
06:00 PM 36.5°F2.5°C 34.9°F1.6°C 94% 8.5 mph SSE13.7 kmh SSE 9.1 mph14.6 kmh 29.57 in1001.4 mb 0.00 in0.0 mm 0.00 in0.0 mm 0.00 in0.0 mm
06:10 PM 36.3°F2.4°C 34.8°F1.6°C 94% 9.5 mph SE15.3 kmh SE 13.3 mph21.4 kmh 29.57 in1001.4 mb 0.00 in0.0 mm 0.00 in0.0 mm 0.00 in0.0 mm
06:20 PM 36.1°F2.3°C 34.8°F1.6°C 95% 10.8 mph S17.4 kmh S 13.3 mph21.4 kmh 29.57 in1001.4 mb 0.00 in0.0 mm 0.00 in0.0 mm 0.00 in0.0 mm
06:30 PM 36.1°F2.3°C 34.8°F1.6°C 95% 11.9 mph S19.2 kmh S 14.3 mph23.0 kmh 29.58 in1001.7 mb 0.00 in0.0 mm 0.00 in0.0 mm 0.00 in0.0 mm
06:40 PM 36.0°F2.2°C 34.7°F1.5°C 95% 13.0 mph S20.9 kmh S 16.0 mph25.7 kmh 29.59 in1002.0 mb 0.00 in0.0 mm 0.00 in0.0 mm 0.00 in0.0 mm
06:50 PM 36.0°F2.2°C 34.7°F1.5°C 95% 11.8 mph SSE19.0 kmh SSE 12.5 mph20.1 kmh 29.59 in1002.0 mb 0.00 in0.0 mm 0.00 in0.0 mm 0.00 in0.0 mm
07:00 PM 35.8°F2.1°C 34.8°F1.6°C 96% 14.2 mph S22.9 kmh S 13.3 mph21.4 kmh 29.60 in1002.4 mb 0.01 in0.3 mm 0.01 in0.3 mm 0.01 in0.3 mm
07:10 PM 35.8°F2.1°C 34.8°F1.6°C 96% 13.5 mph NW21.7 kmh NW 12.5 mph20.1 kmh 29.60 in1002.4 mb 0.01 in0.3 mm 0.00 in0.0 mm 0.01 in0.3 mm
07:20 PM 35.8°F2.1°C 34.8°F1.6°C 96% 11.8 mph SSE19.0 kmh SSE 13.3 mph21.4 kmh 29.61 in1002.7 mb 0.01 in0.3 mm 0.00 in0.0 mm 0.01 in0.3 mm
07:30 PM 35.6°F2.0°C 34.6°F1.4°C 96% 10.0 mph S16.1 kmh S 10.8 mph17.4 kmh 29.61 in1002.7 mb 0.01 in0.3 mm 0.00 in0.0 mm 0.01 in0.3 mm
07:40 PM 35.6°F2.0°C 34.6°F1.4°C 96% 10.8 mph SSE17.4 kmh SSE 12.5 mph20.1 kmh 29.62 in1003.0 mb 0.01 in0.3 mm 0.00 in0.0 mm 0.01 in0.3 mm
07:50 PM 35.8°F2.1°C 34.8°F1.6°C 96% 10.4 mph S16.7 kmh S 12.5 mph20.1 kmh 29.62 in1003.0 mb 0.00 in0.0 mm 0.00 in0.0 mm 0.01 in0.3 mm
08:00 PM 35.8°F2.1°C 34.5°F1.4°C 95% 10.2 mph S16.4 kmh S 10.1 mph16.3 kmh 29.62 in1003.0 mb 0.00 in0.0 mm 0.00 in0.0 mm 0.01 in0.3 mm
08:10 PM 35.8°F2.1°C 34.5°F1.4°C 95% 8.0 mph SSE12.9 kmh SSE 10.1 mph16.3 kmh 29.63 in1003.4 mb 0.00 in0.0 mm 0.00 in0.0 mm 0.01 in0.3 mm
08:20 PM 35.8°F2.1°C 34.5°F1.4°C 95% 8.1 mph S13.0 kmh S 10.1 mph16.3 kmh 29.63 in1003.4 mb 0.00 in0.0 mm 0.00 in0.0 mm 0.01 in0.3 mm
08:30 PM 35.8°F2.1°C 34.5°F1.4°C 95% 10.1 mph S16.3 kmh S 10.1 mph16.3 kmh 29.63 in1003.4 mb 0.00 in0.0 mm 0.00 in0.0 mm 0.01 in0.3 mm
08:40 PM 35.8°F2.1°C 34.5°F1.4°C 95% 9.9 mph S15.9 kmh S 10.1 mph16.3 kmh 29.63 in1003.4 mb 0.00 in0.0 mm 0.00 in0.0 mm 0.01 in0.3 mm
08:50 PM 35.8°F2.1°C 34.5°F1.4°C 95% 7.3 mph SSE11.7 kmh SSE 8.4 mph13.5 kmh 29.63 in1003.4 mb 0.00 in0.0 mm 0.00 in0.0 mm 0.01 in0.3 mm
09:00 PM 35.8°F2.1°C 34.5°F1.4°C 95% 10.1 mph SSW16.3 kmh SSW 15.0 mph24.1 kmh 29.64 in1003.7 mb 0.00 in0.0 mm 0.00 in0.0 mm 0.01 in0.3 mm
09:10 PM 35.8°F2.1°C 34.5°F1.4°C 95% 9.0 mph SSE14.5 kmh SSE 8.4 mph13.5 kmh 29.65 in1004.1 mb 0.00 in0.0 mm 0.00 in0.0 mm 0.01 in0.3 mm
09:20 PM 35.6°F2.0°C 34.3°F1.3°C 95% 7.8 mph S12.6 kmh S 7.6 mph12.2 kmh 29.65 in1004.1 mb 0.00 in0.0 mm 0.00 in0.0 mm 0.01 in0.3 mm
09:30 PM 35.6°F2.0°C 34.3°F1.3°C 95% 8.4 mph SSW13.5 kmh SSW 10.1 mph16.3 kmh 29.65 in1004.1 mb 0.00 in0.0 mm 0.00 in0.0 mm 0.01 in0.3 mm
09:40 PM 35.4°F1.9°C 34.1°F1.2°C 95% 7.4 mph SSE11.9 kmh SSE 9.1 mph14.6 kmh 29.65 in1004.1 mb 0.00 in0.0 mm 0.00 in0.0 mm 0.01 in0.3 mm
09:50 PM 35.4°F1.9°C 34.4°F1.3°C 96% 7.5 mph S12.1 kmh S 8.4 mph13.5 kmh 29.66 in1004.4 mb 0.00 in0.0 mm 0.00 in0.0 mm 0.01 in0.3 mm
10:00 PM 35.2°F1.8°C 34.2°F1.2°C 96% 8.4 mph S13.5 kmh S 10.8 mph17.4 kmh 29.66 in1004.4 mb 0.00 in0.0 mm 0.00 in0.0 mm 0.01 in0.3 mm
10:10 PM 35.2°F1.8°C 34.2°F1.2°C 96% 8.9 mph S14.3 kmh S 9.1 mph14.6 kmh 29.66 in1004.4 mb 0.00 in0.0 mm 0.00 in0.0 mm 0.01 in0.3 mm
10:20 PM 35.1°F1.7°C 34.0°F1.1°C 96% 8.2 mph SSW13.2 kmh SSW 8.4 mph13.5 kmh 29.66 in1004.4 mb 0.00 in0.0 mm 0.00 in0.0 mm 0.01 in0.3 mm
10:30 PM 35.1°F1.7°C 34.3°F1.3°C 97% 6.7 mph S10.8 kmh S 7.6 mph12.2 kmh 29.66 in1004.4 mb 0.00 in0.0 mm 0.00 in0.0 mm 0.01 in0.3 mm
10:40 PM 35.1°F1.7°C 34.3°F1.3°C 97% 9.8 mph S15.8 kmh S 10.1 mph16.3 kmh 29.66 in1004.4 mb 0.00 in0.0 mm 0.00 in0.0 mm 0.01 in0.3 mm
10:50 PM 35.1°F1.7°C 34.3°F1.3°C 97% 10.0 mph S16.1 kmh S 10.8 mph17.4 kmh 29.67 in1004.7 mb 0.00 in0.0 mm 0.00 in0.0 mm 0.01 in0.3 mm
11:00 PM 34.9°F1.6°C 34.1°F1.2°C 97% 9.2 mph S14.8 kmh S 10.1 mph16.3 kmh 29.67 in1004.7 mb 0.00 in0.0 mm 0.00 in0.0 mm 0.01 in0.3 mm
11:10 PM 34.9°F1.6°C 34.1°F1.2°C 97% 9.8 mph SW15.8 kmh SW 8.4 mph13.5 kmh 29.67 in1004.7 mb 0.00 in0.0 mm 0.00 in0.0 mm 0.01 in0.3 mm
11:20 PM 34.9°F1.6°C 34.1°F1.2°C 97% 8.5 mph S13.7 kmh S 8.4 mph13.5 kmh 29.67 in1004.7 mb 0.01 in0.3 mm 0.06 in1.5 mm 0.02 in0.5 mm
11:30 PM 34.9°F1.6°C 34.1°F1.2°C 97% 8.6 mph SSW13.8 kmh SSW 9.1 mph14.6 kmh 29.67 in1004.7 mb 0.01 in0.3 mm 0.00 in0.0 mm 0.02 in0.5 mm
11:40 PM 34.9°F1.6°C 34.1°F1.2°C 97% 9.4 mph S15.1 kmh S 10.1 mph16.3 kmh 29.67 in1004.7 mb 0.01 in0.3 mm 0.00 in0.0 mm 0.02 in0.5 mm
11:50 PM 34.9°F1.6°C 34.1°F1.2°C 97% 9.6 mph S15.4 kmh S 12.5 mph20.1 kmh 29.67 in1004.7 mb 0.01 in0.3 mm 0.00 in0.0 mm 0.02 in0.5 mm